sensor_id;sensor_type;location;lat;lon;timestamp;P1;durP1;ratioP1;P2;durP2;ratioP2
46110;SDS011;31849;55.992;37.252;2024-02-26T00:03:16;7.57;;;4.00;;
46110;SDS011;31849;55.992;37.252;2024-02-26T00:08:21;7.90;;;3.50;;
46110;SDS011;31849;55.992;37.252;2024-02-26T00:13:26;9.13;;;4.03;;
46110;SDS011;31849;55.992;37.252;2024-02-26T00:18:30;8.02;;;3.60;;
46110;SDS011;31849;55.992;37.252;2024-02-26T00:23:34;7.93;;;3.72;;
46110;SDS011;31849;55.992;37.252;2024-02-26T00:28:40;6.30;;;3.50;;
46110;SDS011;31849;55.992;37.252;2024-02-26T00:33:44;7.35;;;4.07;;
46110;SDS011;31849;55.992;37.252;2024-02-26T00:38:48;10.95;;;3.95;;
46110;SDS011;31849;55.992;37.252;2024-02-26T00:43:55;9.50;;;4.13;;
46110;SDS011;31849;55.992;37.252;2024-02-26T00:48:59;8.93;;;4.30;;
46110;SDS011;31849;55.992;37.252;2024-02-26T00:54:04;7.35;;;3.45;;
46110;SDS011;31849;55.992;37.252;2024-02-26T00:59:09;5.10;;;2.90;;
46110;SDS011;31849;55.992;37.252;2024-02-26T01:04:13;5.22;;;3.30;;
46110;SDS011;31849;55.992;37.252;2024-02-26T01:09:17;8.73;;;3.93;;
46110;SDS011;31849;55.992;37.252;2024-02-26T01:14:23;7.87;;;3.47;;
46110;SDS011;31849;55.992;37.252;2024-02-26T01:19:27;7.47;;;3.33;;
46110;SDS011;31849;55.992;37.252;2024-02-26T01:24:31;7.50;;;3.20;;
46110;SDS011;31849;55.992;37.252;2024-02-26T01:29:36;6.17;;;2.30;;
46110;SDS011;31849;55.992;37.252;2024-02-26T01:34:40;5.95;;;3.35;;
46110;SDS011;31849;55.992;37.252;2024-02-26T01:39:44;7.90;;;3.30;;
46110;SDS011;31849;55.992;37.252;2024-02-26T01:44:49;6.50;;;3.58;;
46110;SDS011;31849;55.992;37.252;2024-02-26T01:49:53;7.20;;;3.25;;
46110;SDS011;31849;55.992;37.252;2024-02-26T01:54:58;5.90;;;3.00;;
46110;SDS011;31849;55.992;37.252;2024-02-26T02:00:06;5.70;;;3.05;;
46110;SDS011;31849;55.992;37.252;2024-02-26T02:05:11;6.60;;;3.42;;
46110;SDS011;31849;55.992;37.252;2024-02-26T02:10:15;8.68;;;3.10;;
46110;SDS011;31849;55.992;37.252;2024-02-26T02:15:21;6.55;;;3.38;;
46110;SDS011;31849;55.992;37.252;2024-02-26T02:20:31;6.40;;;3.10;;
46110;SDS011;31849;55.992;37.252;2024-02-26T02:25:36;4.57;;;2.70;;
46110;SDS011;31849;55.992;37.252;2024-02-26T02:30:40;7.28;;;3.17;;
46110;SDS011;31849;55.992;37.252;2024-02-26T02:35:46;6.57;;;3.17;;
46110;SDS011;31849;55.992;37.252;2024-02-26T02:40:53;9.27;;;3.10;;
46110;SDS011;31849;55.992;37.252;2024-02-26T02:45:57;6.90;;;2.73;;
46110;SDS011;31849;55.992;37.252;2024-02-26T02:51:03;6.87;;;3.70;;
46110;SDS011;31849;55.992;37.252;2024-02-26T02:56:07;7.10;;;2.90;;
46110;SDS011;31849;55.992;37.252;2024-02-26T03:01:12;7.03;;;2.53;;
46110;SDS011;31849;55.992;37.252;2024-02-26T03:06:18;7.65;;;2.80;;
46110;SDS011;31849;55.992;37.252;2024-02-26T03:11:23;4.70;;;2.45;;
46110;SDS011;31849;55.992;37.252;2024-02-26T03:16:29;4.53;;;2.33;;
46110;SDS011;31849;55.992;37.252;2024-02-26T03:21:34;7.28;;;2.70;;
46110;SDS011;31849;55.992;37.252;2024-02-26T03:26:38;4.93;;;2.10;;
46110;SDS011;31849;55.992;37.252;2024-02-26T03:31:42;8.70;;;3.28;;
46110;SDS011;31849;55.992;37.252;2024-02-26T03:36:48;5.57;;;2.60;;
46110;SDS011;31849;55.992;37.252;2024-02-26T03:41:51;5.00;;;2.35;;
46110;SDS011;31849;55.992;37.252;2024-02-26T03:46:56;5.32;;;2.63;;
46110;SDS011;31849;55.992;37.252;2024-02-26T03:52:01;5.63;;;2.20;;
46110;SDS011;31849;55.992;37.252;2024-02-26T03:57:05;5.47;;;2.30;;
46110;SDS011;31849;55.992;37.252;2024-02-26T04:02:09;4.73;;;2.07;;
46110;SDS011;31849;55.992;37.252;2024-02-26T04:07:15;8.48;;;2.72;;
46110;SDS011;31849;55.992;37.252;2024-02-26T04:12:19;4.40;;;2.20;;
46110;SDS011;31849;55.992;37.252;2024-02-26T04:17:23;4.18;;;2.20;;
46110;SDS011;31849;55.992;37.252;2024-02-26T04:22:29;6.45;;;2.97;;
46110;SDS011;31849;55.992;37.252;2024-02-26T04:27:33;6.00;;;2.55;;
46110;SDS011;31849;55.992;37.252;2024-02-26T04:32:37;5.03;;;2.57;;
46110;SDS011;31849;55.992;37.252;2024-02-26T04:37:43;3.78;;;1.90;;
46110;SDS011;31849;55.992;37.252;2024-02-26T04:42:47;5.10;;;2.53;;
46110;SDS011;31849;55.992;37.252;2024-02-26T04:47:51;4.03;;;1.67;;
46110;SDS011;31849;55.992;37.252;2024-02-26T04:52:56;8.07;;;4.93;;
46110;SDS011;31849;55.992;37.252;2024-02-26T04:58:00;7.22;;;2.83;;
46110;SDS011;31849;55.992;37.252;2024-02-26T05:03:04;5.50;;;2.60;;
46110;SDS011;31849;55.992;37.252;2024-02-26T05:08:11;8.93;;;3.30;;
46110;SDS011;31849;55.992;37.252;2024-02-26T05:13:15;5.85;;;2.35;;
46110;SDS011;31849;55.992;37.252;2024-02-26T05:18:20;5.55;;;2.90;;
46110;SDS011;31849;55.992;37.252;2024-02-26T05:23:26;5.75;;;2.72;;
46110;SDS011;31849;55.992;37.252;2024-02-26T05:28:30;5.57;;;2.35;;
46110;SDS011;31849;55.992;37.252;2024-02-26T05:33:34;10.80;;;3.08;;
46110;SDS011;31849;55.992;37.252;2024-02-26T05:38:40;5.10;;;2.85;;
46110;SDS011;31849;55.992;37.252;2024-02-26T05:43:44;7.30;;;2.47;;
46110;SDS011;31849;55.992;37.252;2024-02-26T05:48:49;8.57;;;2.80;;
46110;SDS011;31849;55.992;37.252;2024-02-26T05:53:55;8.65;;;3.28;;
46110;SDS011;31849;55.992;37.252;2024-02-26T05:59:00;5.38;;;2.88;;
46110;SDS011;31849;55.992;37.252;2024-02-26T06:04:04;10.33;;;3.93;;
46110;SDS011;31849;55.992;37.252;2024-02-26T06:09:09;9.13;;;3.37;;
46110;SDS011;31849;55.992;37.252;2024-02-26T06:14:14;9.50;;;3.70;;
46110;SDS011;31849;55.992;37.252;2024-02-26T06:19:20;9.18;;;3.40;;
46110;SDS011;31849;55.992;37.252;2024-02-26T06:24:25;7.93;;;3.47;;
46110;SDS011;31849;55.992;37.252;2024-02-26T06:29:29;6.53;;;3.50;;
46110;SDS011;31849;55.992;37.252;2024-02-26T06:34:34;7.30;;;3.57;;
46110;SDS011;31849;55.992;37.252;2024-02-26T06:39:39;10.80;;;3.92;;
46110;SDS011;31849;55.992;37.252;2024-02-26T06:44:44;7.60;;;3.47;;
46110;SDS011;31849;55.992;37.252;2024-02-26T06:49:48;9.27;;;4.50;;
46110;SDS011;31849;55.992;37.252;2024-02-26T06:54:53;9.50;;;4.13;;
46110;SDS011;31849;55.992;37.252;2024-02-26T06:59:57;8.93;;;4.25;;
46110;SDS011;31849;55.992;37.252;2024-02-26T07:05:05;10.30;;;4.40;;
46110;SDS011;31849;55.992;37.252;2024-02-26T07:10:11;10.38;;;4.55;;
46110;SDS011;31849;55.992;37.252;2024-02-26T07:15:15;10.85;;;4.50;;
46110;SDS011;31849;55.992;37.252;2024-02-26T07:20:20;7.80;;;3.95;;
46110;SDS011;31849;55.992;37.252;2024-02-26T07:25:28;7.78;;;4.15;;
46110;SDS011;31849;55.992;37.252;2024-02-26T07:30:32;8.43;;;4.15;;
46110;SDS011;31849;55.992;37.252;2024-02-26T07:35:36;8.60;;;4.10;;
46110;SDS011;31849;55.992;37.252;2024-02-26T07:40:42;8.45;;;4.70;;
46110;SDS011;31849;55.992;37.252;2024-02-26T07:45:59;8.57;;;3.75;;
46110;SDS011;31849;55.992;37.252;2024-02-26T07:51:03;10.47;;;5.97;;
46110;SDS011;31849;55.992;37.252;2024-02-26T07:56:09;7.90;;;4.23;;
46110;SDS011;31849;55.992;37.252;2024-02-26T08:01:13;9.90;;;4.80;;
46110;SDS011;31849;55.992;37.252;2024-02-26T08:06:17;7.30;;;4.13;;
46110;SDS011;31849;55.992;37.252;2024-02-26T08:11:23;9.93;;;4.40;;
46110;SDS011;31849;55.992;37.252;2024-02-26T08:16:27;12.15;;;4.57;;
46110;SDS011;31849;55.992;37.252;2024-02-26T08:21:33;8.15;;;5.28;;
46110;SDS011;31849;55.992;37.252;2024-02-26T08:26:40;10.70;;;5.10;;
46110;SDS011;31849;55.992;37.252;2024-02-26T08:31:44;12.75;;;5.25;;
46110;SDS011;31849;55.992;37.252;2024-02-26T08:36:48;11.93;;;5.27;;
46110;SDS011;31849;55.992;37.252;2024-02-26T08:41:54;14.45;;;6.22;;
46110;SDS011;31849;55.992;37.252;2024-02-26T08:46:58;10.20;;;4.93;;
46110;SDS011;31849;55.992;37.252;2024-02-26T08:52:04;11.47;;;5.30;;
46110;SDS011;31849;55.992;37.252;2024-02-26T08:57:10;9.63;;;5.18;;
46110;SDS011;31849;55.992;37.252;2024-02-26T09:02:14;10.38;;;5.30;;
46110;SDS011;31849;55.992;37.252;2024-02-26T09:07:18;11.60;;;4.90;;
46110;SDS011;31849;55.992;37.252;2024-02-26T09:12:24;12.90;;;6.07;;
46110;SDS011;31849;55.992;37.252;2024-02-26T09:17:28;12.50;;;5.93;;
46110;SDS011;31849;55.992;37.252;2024-02-26T09:22:32;9.43;;;5.07;;
46110;SDS011;31849;55.992;37.252;2024-02-26T09:27:38;9.65;;;5.65;;
46110;SDS011;31849;55.992;37.252;2024-02-26T09:32:46;13.20;;;4.90;;
46110;SDS011;31849;55.992;37.252;2024-02-26T09:37:51;9.70;;;5.10;;
46110;SDS011;31849;55.992;37.252;2024-02-26T09:42:59;10.15;;;4.75;;
46110;SDS011;31849;55.992;37.252;2024-02-26T09:48:04;11.00;;;5.13;;
46110;SDS011;31849;55.992;37.252;2024-02-26T09:53:12;10.35;;;5.63;;
46110;SDS011;31849;55.992;37.252;2024-02-26T09:58:20;15.35;;;5.35;;
46110;SDS011;31849;55.992;37.252;2024-02-26T10:03:25;9.25;;;5.63;;
46110;SDS011;31849;55.992;37.252;2024-02-26T10:08:35;11.15;;;4.53;;
46110;SDS011;31849;55.992;37.252;2024-02-26T10:13:41;11.18;;;5.82;;
46110;SDS011;31849;55.992;37.252;2024-02-26T10:18:45;13.85;;;5.68;;
46110;SDS011;31849;55.992;37.252;2024-02-26T10:29:19;11.50;;;4.97;;
46110;SDS011;31849;55.992;37.252;2024-02-26T10:34:23;13.63;;;5.47;;
46110;SDS011;31849;55.992;37.252;2024-02-26T10:39:28;11.18;;;5.38;;
46110;SDS011;31849;55.992;37.252;2024-02-26T10:44:33;11.97;;;5.67;;
46110;SDS011;31849;55.992;37.252;2024-02-26T10:49:37;11.05;;;5.07;;
46110;SDS011;31849;55.992;37.252;2024-02-26T10:54:41;11.63;;;5.33;;
46110;SDS011;31849;55.992;37.252;2024-02-26T10:59:52;12.20;;;5.53;;
46110;SDS011;31849;55.992;37.252;2024-02-26T11:04:58;9.65;;;5.47;;
46110;SDS011;31849;55.992;37.252;2024-02-26T11:10:05;12.27;;;5.15;;
46110;SDS011;31849;55.992;37.252;2024-02-26T11:15:11;9.13;;;5.25;;
46110;SDS011;31849;55.992;37.252;2024-02-26T11:20:16;12.30;;;5.10;;
46110;SDS011;31849;55.992;37.252;2024-02-26T11:25:22;8.52;;;4.10;;
46110;SDS011;31849;55.992;37.252;2024-02-26T11:30:29;13.15;;;4.82;;
46110;SDS011;31849;55.992;37.252;2024-02-26T11:35:36;9.57;;;4.68;;
46110;SDS011;31849;55.992;37.252;2024-02-26T11:40:40;9.32;;;4.93;;
46110;SDS011;31849;55.992;37.252;2024-02-26T11:45:53;9.45;;;4.70;;
46110;SDS011;31849;55.992;37.252;2024-02-26T11:51:01;11.27;;;4.97;;
46110;SDS011;31849;55.992;37.252;2024-02-26T11:56:21;11.88;;;5.20;;
46110;SDS011;31849;55.992;37.252;2024-02-26T12:01:47;12.05;;;5.15;;
46110;SDS011;31849;55.992;37.252;2024-02-26T12:06:53;11.23;;;4.97;;
46110;SDS011;31849;55.992;37.252;2024-02-26T12:12:00;11.13;;;5.00;;
46110;SDS011;31849;55.992;37.252;2024-02-26T12:17:07;14.38;;;5.22;;
46110;SDS011;31849;55.992;37.252;2024-02-26T12:22:22;13.55;;;5.30;;
46110;SDS011;31849;55.992;37.252;2024-02-26T12:27:28;7.78;;;4.43;;
46110;SDS011;31849;55.992;37.252;2024-02-26T12:32:34;14.65;;;5.88;;
46110;SDS011;31849;55.992;37.252;2024-02-26T12:37:38;14.40;;;5.78;;
46110;SDS011;31849;55.992;37.252;2024-02-26T12:42:45;9.85;;;5.07;;
46110;SDS011;31849;55.992;37.252;2024-02-26T12:47:51;11.80;;;5.53;;
46110;SDS011;31849;55.992;37.252;2024-02-26T12:52:55;13.35;;;4.72;;
46110;SDS011;31849;55.992;37.252;2024-02-26T12:57:59;14.77;;;5.10;;
46110;SDS011;31849;55.992;37.252;2024-02-26T13:03:04;16.75;;;5.97;;
46110;SDS011;31849;55.992;37.252;2024-02-26T13:08:09;11.48;;;5.32;;
46110;SDS011;31849;55.992;37.252;2024-02-26T13:13:14;12.80;;;5.45;;
46110;SDS011;31849;55.992;37.252;2024-02-26T13:18:21;10.27;;;5.22;;
46110;SDS011;31849;55.992;37.252;2024-02-26T13:23:25;10.32;;;4.97;;
46110;SDS011;31849;55.992;37.252;2024-02-26T13:28:29;14.30;;;4.83;;
46110;SDS011;31849;55.992;37.252;2024-02-26T13:33:34;12.88;;;5.75;;
46110;SDS011;31849;55.992;37.252;2024-02-26T13:38:38;8.25;;;4.80;;
46110;SDS011;31849;55.992;37.252;2024-02-26T13:43:45;10.75;;;5.03;;
46110;SDS011;31849;55.992;37.252;2024-02-26T13:48:50;10.73;;;4.63;;
46110;SDS011;31849;55.992;37.252;2024-02-26T13:53:57;10.02;;;5.40;;
46110;SDS011;31849;55.992;37.252;2024-02-26T13:59:01;9.75;;;4.50;;
46110;SDS011;31849;55.992;37.252;2024-02-26T14:04:07;15.13;;;5.20;;
46110;SDS011;31849;55.992;37.252;2024-02-26T14:09:11;12.45;;;5.10;;
46110;SDS011;31849;55.992;37.252;2024-02-26T14:14:21;10.93;;;5.10;;
46110;SDS011;31849;55.992;37.252;2024-02-26T14:19:26;13.40;;;4.68;;
46110;SDS011;31849;55.992;37.252;2024-02-26T14:24:30;10.55;;;4.72;;
46110;SDS011;31849;55.992;37.252;2024-02-26T14:29:35;9.80;;;4.43;;
46110;SDS011;31849;55.992;37.252;2024-02-26T14:34:40;15.87;;;5.47;;
46110;SDS011;31849;55.992;37.252;2024-02-26T14:39:45;15.35;;;4.85;;
46110;SDS011;31849;55.992;37.252;2024-02-26T14:44:51;15.18;;;5.38;;
46110;SDS011;31849;55.992;37.252;2024-02-26T14:49:56;9.97;;;4.90;;
46110;SDS011;31849;55.992;37.252;2024-02-26T14:55:00;13.15;;;4.13;;
46110;SDS011;31849;55.992;37.252;2024-02-26T15:00:05;10.15;;;5.15;;
46110;SDS011;31849;55.992;37.252;2024-02-26T15:05:13;9.27;;;4.10;;
46110;SDS011;31849;55.992;37.252;2024-02-26T15:10:19;8.40;;;3.95;;
46110;SDS011;31849;55.992;37.252;2024-02-26T15:15:23;11.40;;;4.43;;
46110;SDS011;31849;55.992;37.252;2024-02-26T15:20:28;9.73;;;4.53;;
46110;SDS011;31849;55.992;37.252;2024-02-26T15:25:32;13.70;;;4.55;;
46110;SDS011;31849;55.992;37.252;2024-02-26T15:30:36;12.73;;;4.23;;
46110;SDS011;31849;55.992;37.252;2024-02-26T15:35:42;10.32;;;4.28;;
46110;SDS011;31849;55.992;37.252;2024-02-26T15:40:47;8.73;;;4.40;;
46110;SDS011;31849;55.992;37.252;2024-02-26T15:45:51;7.20;;;3.90;;
46110;SDS011;31849;55.992;37.252;2024-02-26T15:50:56;13.03;;;3.90;;
46110;SDS011;31849;55.992;37.252;2024-02-26T15:56:00;9.82;;;3.80;;
46110;SDS011;31849;55.992;37.252;2024-02-26T16:01:04;11.27;;;3.87;;
46110;SDS011;31849;55.992;37.252;2024-02-26T16:06:24;8.23;;;3.90;;
46110;SDS011;31849;55.992;37.252;2024-02-26T16:11:32;12.30;;;3.63;;
46110;SDS011;31849;55.992;37.252;2024-02-26T16:16:36;11.50;;;4.07;;
46110;SDS011;31849;55.992;37.252;2024-02-26T16:21:47;10.07;;;3.45;;
46110;SDS011;31849;55.992;37.252;2024-02-26T16:26:51;8.55;;;3.80;;
46110;SDS011;31849;55.992;37.252;2024-02-26T16:31:55;8.93;;;4.20;;
46110;SDS011;31849;55.992;37.252;2024-02-26T16:37:01;8.43;;;3.63;;
46110;SDS011;31849;55.992;37.252;2024-02-26T16:42:12;10.55;;;5.30;;
46110;SDS011;31849;55.992;37.252;2024-02-26T16:47:16;5.73;;;3.27;;
46110;SDS011;31849;55.992;37.252;2024-02-26T16:52:21;7.70;;;3.92;;
46110;SDS011;31849;55.992;37.252;2024-02-26T16:57:25;9.95;;;4.18;;
46110;SDS011;31849;55.992;37.252;2024-02-26T17:02:29;9.23;;;3.67;;
46110;SDS011;31849;55.992;37.252;2024-02-26T17:07:35;8.93;;;3.87;;
46110;SDS011;31849;55.992;37.252;2024-02-26T17:12:38;10.68;;;3.78;;
46110;SDS011;31849;55.992;37.252;2024-02-26T17:17:42;7.20;;;3.73;;
46110;SDS011;31849;55.992;37.252;2024-02-26T17:22:48;8.00;;;3.17;;
46110;SDS011;31849;55.992;37.252;2024-02-26T17:27:52;7.20;;;2.80;;
46110;SDS011;31849;55.992;37.252;2024-02-26T17:32:56;6.73;;;3.33;;
46110;SDS011;31849;55.992;37.252;2024-02-26T17:38:01;8.38;;;3.63;;
46110;SDS011;31849;55.992;37.252;2024-02-26T17:43:05;7.35;;;3.47;;
46110;SDS011;31849;55.992;37.252;2024-02-26T17:48:10;7.93;;;3.55;;
46110;SDS011;31849;55.992;37.252;2024-02-26T17:53:15;5.07;;;2.83;;
46110;SDS011;31849;55.992;37.252;2024-02-26T17:58:20;6.15;;;3.65;;
46110;SDS011;31849;55.992;37.252;2024-02-26T18:03:25;6.20;;;2.60;;
46110;SDS011;31849;55.992;37.252;2024-02-26T18:08:31;15.05;;;3.58;;
46110;SDS011;31849;55.992;37.252;2024-02-26T18:13:35;9.07;;;3.70;;
46110;SDS011;31849;55.992;37.252;2024-02-26T18:18:43;9.27;;;3.63;;
46110;SDS011;31849;55.992;37.252;2024-02-26T18:23:50;8.73;;;3.88;;
46110;SDS011;31849;55.992;37.252;2024-02-26T18:28:54;7.10;;;3.28;;
46110;SDS011;31849;55.992;37.252;2024-02-26T18:33:58;8.73;;;3.83;;
46110;SDS011;31849;55.992;37.252;2024-02-26T18:39:04;9.88;;;3.97;;
46110;SDS011;31849;55.992;37.252;2024-02-26T18:44:11;7.88;;;3.30;;
46110;SDS011;31849;55.992;37.252;2024-02-26T18:49:16;8.90;;;3.90;;
46110;SDS011;31849;55.992;37.252;2024-02-26T18:54:22;7.18;;;3.97;;
46110;SDS011;31849;55.992;37.252;2024-02-26T18:59:26;8.52;;;3.72;;
46110;SDS011;31849;55.992;37.252;2024-02-26T19:04:30;8.55;;;4.28;;
46110;SDS011;31849;55.992;37.252;2024-02-26T19:09:36;11.23;;;5.03;;
46110;SDS011;31849;55.992;37.252;2024-02-26T19:14:41;9.93;;;4.93;;
46110;SDS011;31849;55.992;37.252;2024-02-26T19:19:46;9.95;;;5.22;;
46110;SDS011;31849;55.992;37.252;2024-02-26T19:24:51;7.40;;;4.23;;
46110;SDS011;31849;55.992;37.252;2024-02-26T19:29:55;7.78;;;4.28;;
46110;SDS011;31849;55.992;37.252;2024-02-26T19:34:59;8.03;;;3.13;;
46110;SDS011;31849;55.992;37.252;2024-02-26T19:40:07;7.63;;;4.13;;
46110;SDS011;31849;55.992;37.252;2024-02-26T19:45:13;8.88;;;4.10;;
46110;SDS011;31849;55.992;37.252;2024-02-26T19:50:17;8.55;;;3.50;;
46110;SDS011;31849;55.992;37.252;2024-02-26T19:55:23;8.57;;;3.20;;
46110;SDS011;31849;55.992;37.252;2024-02-26T20:00:29;10.13;;;4.82;;
46110;SDS011;31849;55.992;37.252;2024-02-26T20:10:39;9.57;;;4.75;;
46110;SDS011;31849;55.992;37.252;2024-02-26T20:15:43;11.05;;;4.55;;
46110;SDS011;31849;55.992;37.252;2024-02-26T20:20:50;8.50;;;3.30;;
46110;SDS011;31849;55.992;37.252;2024-02-26T20:25:55;8.90;;;3.92;;
46110;SDS011;31849;55.992;37.252;2024-02-26T20:31:00;9.45;;;4.43;;
46110;SDS011;31849;55.992;37.252;2024-02-26T20:36:05;7.43;;;3.60;;
46110;SDS011;31849;55.992;37.252;2024-02-26T20:41:11;7.50;;;3.85;;
46110;SDS011;31849;55.992;37.252;2024-02-26T20:46:14;7.43;;;3.42;;
46110;SDS011;31849;55.992;37.252;2024-02-26T20:51:19;6.43;;;3.35;;
46110;SDS011;31849;55.992;37.252;2024-02-26T20:56:24;8.27;;;3.60;;
46110;SDS011;31849;55.992;37.252;2024-02-26T21:01:28;9.07;;;4.30;;
46110;SDS011;31849;55.992;37.252;2024-02-26T21:06:32;7.22;;;3.40;;
46110;SDS011;31849;55.992;37.252;2024-02-26T21:11:38;9.10;;;3.85;;
46110;SDS011;31849;55.992;37.252;2024-02-26T21:16:42;8.45;;;3.60;;
46110;SDS011;31849;55.992;37.252;2024-02-26T21:26:52;7.80;;;4.15;;
46110;SDS011;31849;55.992;37.252;2024-02-26T21:31:56;8.45;;;3.65;;
46110;SDS011;31849;55.992;37.252;2024-02-26T21:37:00;8.77;;;3.87;;
46110;SDS011;31849;55.992;37.252;2024-02-26T21:42:05;9.00;;;3.57;;
46110;SDS011;31849;55.992;37.252;2024-02-26T21:47:09;10.85;;;4.07;;
46110;SDS011;31849;55.992;37.252;2024-02-26T21:52:13;9.13;;;3.87;;
46110;SDS011;31849;55.992;37.252;2024-02-26T21:57:21;8.27;;;3.55;;
46110;SDS011;31849;55.992;37.252;2024-02-26T22:02:25;8.90;;;4.00;;
46110;SDS011;31849;55.992;37.252;2024-02-26T22:07:29;7.22;;;3.67;;
46110;SDS011;31849;55.992;37.252;2024-02-26T22:12:34;12.70;;;4.60;;
46110;SDS011;31849;55.992;37.252;2024-02-26T22:17:38;8.35;;;4.03;;
46110;SDS011;31849;55.992;37.252;2024-02-26T22:22:43;9.35;;;4.10;;
46110;SDS011;31849;55.992;37.252;2024-02-26T22:27:48;7.60;;;4.50;;
46110;SDS011;31849;55.992;37.252;2024-02-26T22:32:52;8.18;;;4.22;;
46110;SDS011;31849;55.992;37.252;2024-02-26T22:37:57;10.98;;;3.90;;
46110;SDS011;31849;55.992;37.252;2024-02-26T22:43:02;10.70;;;4.80;;
46110;SDS011;31849;55.992;37.252;2024-02-26T22:48:08;10.57;;;4.32;;
46110;SDS011;31849;55.992;37.252;2024-02-26T22:53:12;10.75;;;3.80;;
46110;SDS011;31849;55.992;37.252;2024-02-26T22:58:18;7.68;;;4.00;;
46110;SDS011;31849;55.992;37.252;2024-02-26T23:03:22;8.55;;;4.38;;
46110;SDS011;31849;55.992;37.252;2024-02-26T23:08:26;8.75;;;3.97;;
46110;SDS011;31849;55.992;37.252;2024-02-26T23:13:32;8.80;;;3.97;;
46110;SDS011;31849;55.992;37.252;2024-02-26T23:18:35;10.15;;;4.15;;
46110;SDS011;31849;55.992;37.252;2024-02-26T23:23:40;10.10;;;4.88;;
46110;SDS011;31849;55.992;37.252;2024-02-26T23:28:46;9.73;;;3.67;;
46110;SDS011;31849;55.992;37.252;2024-02-26T23:33:50;8.90;;;4.72;;
46110;SDS011;31849;55.992;37.252;2024-02-26T23:38:55;9.77;;;4.35;;
46110;SDS011;31849;55.992;37.252;2024-02-26T23:44:03;12.55;;;4.90;;
46110;SDS011;31849;55.992;37.252;2024-02-26T23:49:07;10.23;;;4.22;;
46110;SDS011;31849;55.992;37.252;2024-02-26T23:54:11;9.15;;;4.70;;
46110;SDS011;31849;55.992;37.252;2024-02-26T23:59:17;10.15;;;4.97;;
